createdAt,value
2024-03-04T00:00:41.452Z,32.90
2024-03-04T00:03:26.934Z,34.50
2024-03-04T00:06:11.953Z,35.10
2024-03-04T00:08:56.733Z,35.27
2024-03-04T00:11:41.722Z,33.80
2024-03-04T00:14:26.612Z,31.50
2024-03-04T00:17:11.528Z,34.87
2024-03-04T00:19:56.421Z,42.00
2024-03-04T00:22:41.484Z,43.80
2024-03-04T00:25:26.241Z,40.93
2024-03-04T00:28:11.181Z,42.00
2024-03-04T00:30:56.126Z,39.63
2024-03-04T00:33:41.051Z,37.40
2024-03-04T00:36:26.526Z,35.03
2024-03-04T00:39:11.644Z,32.70
2024-03-04T00:41:56.587Z,33.87
2024-03-04T00:44:41.369Z,38.50
2024-03-04T00:47:27.134Z,38.93
2024-03-04T00:50:12.305Z,39.60
2024-03-04T00:52:57.502Z,35.17
2024-03-04T00:55:42.766Z,36.60
2024-03-04T00:58:27.661Z,35.43
2024-03-04T01:01:12.647Z,40.17
2024-03-04T01:03:57.845Z,39.63
2024-03-04T01:06:42.841Z,37.97
2024-03-04T01:09:27.723Z,36.83
2024-03-04T01:12:12.550Z,33.60
2024-03-04T01:14:57.506Z,36.97
2024-03-04T01:17:42.323Z,34.40
2024-03-04T01:20:27.288Z,37.37
2024-03-04T01:23:12.309Z,36.53
2024-03-04T01:25:57.563Z,41.43
2024-03-04T01:28:42.380Z,42.30
2024-03-04T01:31:27.259Z,37.50
2024-03-04T01:34:12.121Z,37.07
2024-03-04T01:36:57.125Z,37.53
2024-03-04T01:39:42.331Z,41.77
2024-03-04T01:42:27.338Z,39.20
2024-03-04T01:45:23.207Z,34.90
2024-03-04T01:48:09.017Z,44.70
2024-03-04T01:50:55.266Z,40.70
2024-03-04T01:53:40.414Z,37.03
2024-03-04T01:56:25.681Z,33.73
2024-03-04T01:59:10.745Z,36.53
2024-03-04T02:01:55.721Z,46.43
2024-03-04T02:04:42.231Z,47.13
2024-03-04T02:07:27.433Z,48.27
2024-03-04T02:10:13.768Z,45.00
2024-03-04T02:12:59.473Z,43.07
2024-03-04T02:15:44.695Z,45.03
2024-03-04T02:18:29.912Z,46.10
2024-03-04T02:21:17.082Z,44.33
2024-03-04T02:24:02.204Z,49.53
2024-03-04T02:26:47.554Z,48.83
2024-03-04T02:29:32.452Z,51.20
2024-03-04T02:32:17.793Z,52.00
2024-03-04T02:35:03.655Z,50.40
2024-03-04T02:37:48.934Z,48.37
2024-03-04T02:40:33.811Z,50.97
2024-03-04T02:43:19.330Z,51.27
2024-03-04T02:46:04.932Z,52.90
2024-03-04T02:48:50.153Z,52.33
2024-03-04T02:51:35.253Z,49.77
2024-03-04T02:54:20.557Z,51.63
2024-03-04T02:57:05.673Z,51.77
2024-03-04T02:59:50.661Z,50.67
2024-03-04T03:02:35.579Z,49.97
2024-03-04T03:05:20.364Z,48.57
2024-03-04T03:08:06.099Z,49.37
2024-03-04T03:10:51.385Z,48.13
2024-03-04T03:13:36.691Z,49.47
2024-03-04T03:16:23.145Z,49.87
2024-03-04T03:19:08.077Z,48.77
2024-03-04T03:21:53.672Z,43.97
2024-03-04T03:24:38.973Z,48.13
2024-03-04T03:27:23.860Z,46.97
2024-03-04T03:30:09.276Z,45.87
2024-03-04T03:32:54.535Z,40.73
2024-03-04T03:35:40.060Z,42.83
2024-03-04T03:38:24.906Z,43.17
2024-03-04T03:41:10.037Z,47.00
2024-03-04T03:43:54.882Z,40.17
2024-03-04T03:46:39.832Z,41.30
2024-03-04T03:49:24.769Z,46.77
2024-03-04T03:52:09.643Z,46.27
2024-03-04T03:54:54.791Z,49.33
2024-03-04T03:57:51.242Z,50.67
2024-03-04T04:00:43.267Z,48.57
2024-03-04T04:03:28.611Z,48.67
2024-03-04T04:06:13.458Z,51.60
2024-03-04T04:08:58.435Z,47.77
2024-03-04T04:11:44.061Z,47.63
2024-03-04T04:14:29.274Z,48.70
2024-03-04T04:17:14.042Z,51.77
2024-03-04T04:19:59.037Z,48.20
2024-03-04T04:22:44.101Z,49.60
2024-03-04T04:25:28.864Z,53.53
2024-03-04T04:28:13.812Z,57.33
2024-03-04T04:30:59.205Z,57.27
2024-03-04T04:33:44.604Z,57.37
2024-03-04T04:36:29.404Z,59.30
2024-03-04T04:39:14.306Z,57.93
2024-03-04T04:41:59.283Z,60.60
2024-03-04T04:44:44.088Z,58.40
2024-03-04T04:47:29.016Z,59.77
2024-03-04T04:50:13.882Z,61.47
2024-03-04T04:52:59.189Z,58.43
2024-03-04T04:55:44.269Z,56.23
2024-03-04T04:58:29.649Z,54.90
2024-03-04T05:01:28.256Z,65.87
2024-03-04T05:04:31.752Z,66.43
2024-03-04T05:07:18.765Z,85.23
2024-03-04T05:10:05.057Z,82.77
2024-03-04T05:12:50.517Z,77.73
2024-03-04T05:15:35.337Z,77.80
2024-03-04T05:18:20.157Z,78.43
2024-03-04T05:21:05.717Z,90.67
2024-03-04T05:23:50.669Z,80.43
2024-03-04T05:26:35.746Z,87.40
2024-03-04T05:29:20.502Z,80.67
2024-03-04T05:32:05.904Z,81.50
2024-03-04T05:34:50.785Z,84.17
2024-03-04T05:37:35.628Z,80.53
2024-03-04T05:40:23.867Z,79.10
2024-03-04T05:43:08.817Z,81.33
2024-03-04T05:45:53.744Z,90.33
2024-03-04T05:48:38.642Z,87.93
2024-03-04T05:51:23.504Z,89.27
2024-03-04T05:54:11.914Z,96.53
2024-03-04T05:56:56.791Z,87.43
2024-03-04T05:59:42.184Z,87.93
2024-03-04T06:02:27.140Z,88.83
2024-03-04T06:05:13.016Z,90.53
2024-03-04T06:07:58.128Z,88.10
2024-03-04T06:10:42.974Z,105.03
2024-03-04T06:13:27.880Z,86.50
2024-03-04T06:16:12.782Z,88.50
2024-03-04T06:18:57.787Z,97.50
2024-03-04T06:21:45.193Z,92.93
2024-03-04T06:24:31.276Z,85.20
2024-03-04T06:27:16.152Z,88.77
2024-03-04T06:30:02.179Z,84.87
2024-03-04T06:32:47.175Z,86.47
2024-03-04T06:35:32.045Z,83.77
2024-03-04T06:38:16.822Z,94.10
2024-03-04T06:41:03.307Z,83.63
2024-03-04T06:43:48.243Z,99.20
2024-03-04T06:46:33.157Z,88.97
2024-03-04T06:49:18.594Z,103.10
2024-03-04T06:52:03.534Z,124.03
2024-03-04T06:54:51.538Z,94.03
2024-03-04T06:57:36.398Z,90.47
2024-03-04T07:00:21.477Z,102.57
2024-03-04T07:03:06.675Z,89.53
2024-03-04T07:05:51.609Z,78.87
2024-03-04T07:08:36.627Z,77.00
2024-03-04T07:11:21.537Z,73.60
2024-03-04T07:14:06.393Z,75.73
2024-03-04T07:16:51.246Z,76.30
2024-03-04T07:19:36.157Z,75.30
2024-03-04T07:22:21.025Z,71.77
2024-03-04T07:25:07.026Z,69.67
2024-03-04T07:27:52.093Z,82.07
2024-03-04T07:30:37.040Z,75.20
2024-03-04T07:33:21.926Z,69.70
2024-03-04T07:36:07.091Z,69.37
2024-03-04T07:38:52.290Z,70.40
2024-03-04T07:41:37.224Z,68.60
2024-03-04T07:44:22.234Z,67.87
2024-03-04T07:47:07.328Z,63.53
2024-03-04T07:49:52.320Z,65.33
2024-03-04T07:52:37.265Z,62.87
2024-03-04T07:55:23.822Z,64.57
2024-03-04T07:58:08.969Z,69.70
2024-03-04T08:00:54.803Z,65.53
2024-03-04T08:03:39.872Z,86.60
2024-03-04T08:06:24.925Z,91.97
2024-03-04T08:09:10.100Z,71.47
2024-03-04T08:11:55.284Z,68.37
2024-03-04T08:14:40.184Z,63.93
2024-03-04T08:17:26.526Z,66.50
2024-03-04T08:20:17.559Z,65.70
2024-03-04T08:23:10.356Z,63.60
2024-03-04T08:25:55.371Z,66.03
2024-03-04T08:28:41.069Z,63.07
2024-03-04T08:31:26.133Z,65.33
2024-03-04T08:34:11.085Z,64.03
2024-03-04T08:36:56.426Z,64.73
2024-03-04T08:39:41.269Z,62.37
2024-03-04T08:42:26.234Z,60.63
2024-03-04T08:45:11.442Z,61.13
2024-03-04T08:47:56.857Z,59.10
2024-03-04T08:50:41.793Z,59.03
2024-03-04T08:53:26.686Z,58.43
2024-03-04T08:56:11.498Z,58.60
2024-03-04T08:58:58.425Z,58.07
2024-03-04T09:01:43.575Z,56.33
2024-03-04T09:04:28.529Z,56.77
2024-03-04T09:07:13.527Z,57.60
2024-03-04T09:09:58.543Z,57.07
2024-03-04T09:12:44.637Z,58.43
2024-03-04T09:15:29.652Z,57.37
2024-03-04T09:18:14.534Z,58.40
2024-03-04T09:20:59.379Z,56.87
2024-03-04T09:23:44.295Z,56.07
2024-03-04T09:26:29.211Z,58.63
2024-03-04T09:29:14.276Z,57.00
2024-03-04T09:31:59.095Z,58.57
2024-03-04T09:34:44.050Z,57.20
2024-03-04T09:37:28.892Z,58.60
2024-03-04T09:40:14.033Z,56.97
2024-03-04T09:42:59.093Z,54.93
2024-03-04T09:45:44.711Z,52.77
2024-03-04T09:48:30.364Z,51.20
2024-03-04T09:51:16.184Z,49.47
2024-03-04T09:54:01.592Z,51.43
2024-03-04T09:56:46.963Z,49.33
2024-03-04T09:59:32.871Z,50.47
2024-03-04T10:02:18.388Z,49.10
2024-03-04T10:05:03.643Z,49.70
2024-03-04T10:07:48.734Z,47.87
2024-03-04T10:10:34.229Z,51.37
2024-03-04T10:13:19.232Z,52.27
2024-03-04T10:16:06.803Z,52.90
2024-03-04T10:19:02.465Z,51.03
2024-03-04T10:21:48.813Z,51.77
2024-03-04T10:24:33.907Z,53.20
2024-03-04T10:27:19.045Z,52.63
2024-03-04T10:30:12.460Z,52.53
2024-03-04T10:33:00.036Z,51.30
2024-03-04T10:35:45.200Z,50.07
2024-03-04T10:38:30.116Z,52.00
2024-03-04T10:41:19.415Z,49.20
2024-03-04T10:44:04.792Z,52.67
2024-03-04T10:46:53.592Z,46.97
2024-03-04T10:49:39.597Z,46.37
2024-03-04T10:52:24.952Z,48.73
2024-03-04T10:55:10.521Z,48.77
2024-03-04T10:58:01.366Z,50.63
2024-03-04T11:00:46.805Z,49.70
2024-03-04T11:03:33.767Z,50.50
2024-03-04T11:06:24.394Z,48.33
2024-03-04T11:09:11.384Z,47.20
2024-03-04T11:12:01.848Z,81.90
2024-03-04T11:14:55.233Z,98.13
2024-03-04T11:17:47.252Z,44.63
2024-03-04T11:20:33.166Z,42.97
2024-03-04T11:23:18.892Z,45.33
2024-03-04T11:26:04.471Z,44.50
2024-03-04T11:28:51.342Z,43.13
2024-03-04T11:31:37.102Z,43.47
2024-03-04T11:34:22.221Z,42.70
2024-03-04T11:37:07.298Z,41.27
2024-03-04T11:39:54.512Z,40.10
2024-03-04T11:42:41.177Z,38.13
2024-03-04T11:45:34.051Z,38.40
2024-03-04T11:48:28.843Z,38.30
2024-03-04T11:51:13.973Z,38.10
2024-03-04T11:53:59.316Z,38.73
2024-03-04T11:56:44.794Z,37.58
2024-03-04T11:59:30.505Z,37.00
2024-03-04T12:02:15.743Z,37.47
2024-03-04T12:05:01.617Z,36.13
2024-03-04T12:07:47.364Z,38.60
2024-03-04T12:10:34.480Z,37.50
2024-03-04T12:13:20.393Z,36.13
2024-03-04T12:16:06.007Z,35.60
2024-03-04T12:18:50.986Z,36.73
2024-03-04T12:21:37.254Z,37.47
2024-03-04T12:24:22.883Z,36.90
2024-03-04T12:27:07.710Z,36.53
2024-03-04T12:29:52.768Z,37.93
2024-03-04T12:32:38.480Z,37.77
2024-03-04T12:35:25.884Z,37.20
2024-03-04T12:38:10.724Z,36.53
2024-03-04T12:40:55.637Z,37.70
2024-03-04T12:43:40.549Z,37.97
2024-03-04T12:46:26.032Z,38.30
2024-03-04T12:49:11.269Z,37.57
2024-03-04T12:51:56.346Z,36.53
2024-03-04T12:54:41.513Z,38.03
2024-03-04T12:57:26.574Z,36.83
2024-03-04T13:00:13.027Z,37.73
2024-03-04T13:02:57.885Z,39.03
2024-03-04T13:05:42.704Z,37.60
2024-03-04T13:08:27.668Z,36.27
2024-03-04T13:11:12.622Z,35.57
2024-03-04T13:13:57.688Z,35.70
2024-03-04T13:16:42.623Z,35.07
2024-03-04T13:19:27.723Z,34.67
2024-03-04T13:22:13.125Z,33.10
2024-03-04T13:24:58.051Z,33.80
2024-03-04T13:27:43.644Z,34.40
2024-03-04T13:30:29.216Z,33.73
2024-03-04T13:33:14.485Z,35.07
2024-03-04T13:36:00.446Z,35.63
2024-03-04T13:38:45.654Z,36.03
2024-03-04T13:41:30.573Z,36.23
2024-03-04T13:44:15.503Z,37.20
2024-03-04T13:47:01.251Z,36.77
2024-03-04T13:49:46.575Z,36.67
2024-03-04T13:52:32.100Z,37.90
2024-03-04T13:55:17.325Z,37.30
2024-03-04T13:58:03.016Z,37.97
2024-03-04T14:00:48.379Z,38.70
2024-03-04T14:03:33.453Z,36.17
2024-03-04T14:06:18.556Z,37.63
2024-03-04T14:09:03.885Z,38.07
2024-03-04T14:11:50.051Z,37.77
2024-03-04T14:14:35.041Z,37.57
2024-03-04T14:17:19.834Z,38.63
2024-03-04T14:20:05.931Z,37.93
2024-03-04T14:22:51.085Z,37.17
2024-03-04T14:25:36.639Z,38.37
2024-03-04T14:28:21.496Z,36.60
2024-03-04T14:31:06.445Z,35.57
2024-03-04T14:33:51.306Z,34.50
2024-03-04T14:36:36.259Z,34.70
2024-03-04T14:39:21.365Z,35.50
2024-03-04T14:42:06.194Z,34.20
2024-03-04T14:44:51.196Z,35.60
2024-03-04T14:47:36.123Z,35.27
2024-03-04T14:50:21.107Z,34.53
2024-03-04T14:53:06.039Z,36.30
2024-03-04T14:55:51.126Z,39.57
2024-03-04T14:58:36.070Z,37.57
2024-03-04T15:01:20.994Z,36.70
2024-03-04T15:04:06.554Z,36.67
2024-03-04T15:06:51.783Z,36.47
2024-03-04T15:09:37.115Z,38.83
2024-03-04T15:12:22.561Z,39.27
2024-03-04T15:15:12.180Z,39.57
2024-03-04T15:18:10.219Z,37.47
2024-03-04T15:21:04.446Z,37.00
2024-03-04T15:23:49.232Z,36.67
2024-03-04T15:26:34.142Z,36.00
2024-03-04T15:29:20.525Z,35.97
2024-03-04T15:32:05.701Z,38.63
2024-03-04T15:34:51.172Z,37.40
2024-03-04T15:37:36.703Z,36.47
2024-03-04T15:40:21.700Z,37.60
2024-03-04T15:43:06.489Z,37.00
2024-03-04T15:45:51.903Z,35.37
2024-03-04T15:48:37.557Z,35.43
2024-03-04T15:51:22.814Z,35.77
2024-03-04T15:54:07.769Z,33.93
2024-03-04T15:56:52.699Z,34.40
2024-03-04T15:59:37.951Z,34.50
2024-03-04T16:02:23.151Z,35.20
2024-03-04T16:05:12.222Z,35.20
2024-03-04T16:07:57.113Z,35.07
2024-03-04T16:10:42.706Z,36.67
2024-03-04T16:13:28.071Z,35.60
2024-03-04T16:16:13.019Z,37.93
2024-03-04T16:18:57.904Z,36.50
2024-03-04T16:21:43.172Z,37.50
2024-03-04T16:24:28.501Z,37.00
2024-03-04T16:27:13.280Z,35.97
2024-03-04T16:29:58.283Z,36.13
2024-03-04T16:32:43.225Z,37.53
2024-03-04T16:35:28.164Z,39.13
2024-03-04T16:38:14.133Z,37.37
2024-03-04T16:40:59.484Z,39.40
2024-03-04T16:43:44.537Z,38.93
2024-03-04T16:46:29.442Z,41.70
2024-03-04T16:49:14.557Z,39.47
2024-03-04T16:51:59.745Z,40.17
2024-03-04T16:54:44.710Z,38.80
2024-03-04T16:57:30.043Z,39.60
2024-03-04T17:00:15.660Z,40.30
2024-03-04T17:03:02.685Z,38.83
2024-03-04T17:05:47.620Z,41.07
2024-03-04T17:08:32.547Z,39.50
2024-03-04T17:11:17.576Z,40.73
2024-03-04T17:14:02.519Z,40.67
2024-03-04T17:16:47.634Z,62.57
2024-03-04T17:19:32.427Z,43.03
2024-03-04T17:22:17.396Z,40.17
2024-03-04T17:25:02.393Z,40.20
2024-03-04T17:27:47.252Z,50.33
2024-03-04T17:30:32.242Z,42.67
2024-03-04T17:33:17.286Z,40.73
2024-03-04T17:36:02.086Z,39.87
2024-03-04T17:38:47.082Z,39.77
2024-03-04T17:41:32.051Z,41.70
2024-03-04T17:44:16.865Z,40.37
2024-03-04T17:47:01.803Z,42.10
2024-03-04T17:49:47.792Z,40.40
2024-03-04T17:52:33.252Z,40.70
2024-03-04T17:55:18.668Z,38.97
2024-03-04T17:58:03.889Z,41.47
2024-03-04T18:00:49.029Z,41.33
2024-03-04T18:03:33.933Z,41.53
2024-03-04T18:06:18.761Z,41.23
2024-03-04T18:09:03.999Z,40.80
2024-03-04T18:11:49.034Z,40.03
2024-03-04T18:14:33.915Z,39.97
2024-03-04T18:17:18.890Z,39.47
2024-03-04T18:20:04.026Z,39.93
2024-03-04T18:22:49.474Z,43.53
2024-03-04T18:25:34.764Z,41.57
2024-03-04T18:28:19.969Z,44.07
2024-03-04T18:31:04.905Z,42.17
2024-03-04T18:33:49.854Z,40.37
2024-03-04T18:36:34.875Z,42.07
2024-03-04T18:39:19.713Z,41.13
2024-03-04T18:42:04.822Z,40.30
2024-03-04T18:44:49.982Z,41.77
2024-03-04T18:47:34.944Z,43.33
2024-03-04T18:50:19.874Z,41.60
2024-03-04T18:53:04.865Z,40.53
2024-03-04T18:55:49.993Z,41.47
2024-03-04T18:58:39.287Z,42.13
2024-03-04T19:01:25.282Z,42.60
2024-03-04T19:04:10.314Z,114.67
2024-03-04T19:06:55.803Z,45.40
2024-03-04T19:09:40.627Z,46.67
2024-03-04T19:12:25.414Z,44.27
2024-03-04T19:15:10.724Z,45.23
2024-03-04T19:17:55.791Z,46.87
2024-03-04T19:20:41.867Z,44.97
2024-03-04T19:23:27.166Z,45.17
2024-03-04T19:26:19.261Z,45.63
2024-03-04T19:29:04.305Z,44.83
2024-03-04T19:31:49.458Z,45.87
2024-03-04T19:34:34.780Z,45.03
2024-03-04T19:37:19.633Z,43.67
2024-03-04T19:40:05.841Z,45.27
2024-03-04T19:42:50.962Z,45.77
2024-03-04T19:45:35.916Z,45.53
2024-03-04T19:48:20.658Z,55.60
2024-03-04T19:51:05.589Z,49.53
2024-03-04T19:53:51.493Z,48.43
2024-03-04T19:56:36.507Z,47.57
2024-03-04T19:59:21.767Z,51.13
2024-03-04T20:02:06.974Z,50.03
2024-03-04T20:04:52.518Z,57.33
2024-03-04T20:07:37.865Z,49.27
2024-03-04T20:10:22.690Z,52.13
2024-03-04T20:13:07.552Z,47.80
2024-03-04T20:15:53.216Z,50.03
2024-03-04T20:18:38.282Z,48.53
2024-03-04T20:21:23.814Z,49.93
2024-03-04T20:24:08.805Z,49.47
2024-03-04T20:26:53.588Z,48.57
2024-03-04T20:29:38.570Z,46.33
2024-03-04T20:32:23.959Z,44.73
2024-03-04T20:35:09.446Z,46.03
2024-03-04T20:37:54.380Z,48.10
2024-03-04T20:40:43.612Z,46.30
2024-03-04T20:43:29.066Z,53.83
2024-03-04T20:46:14.543Z,55.53
2024-03-04T20:48:59.341Z,47.47
2024-03-04T20:51:44.304Z,51.63
2024-03-04T20:54:29.187Z,47.60
2024-03-04T20:57:14.232Z,45.37
2024-03-04T20:59:59.057Z,44.67
2024-03-04T21:02:45.785Z,45.80
2024-03-04T21:05:31.189Z,43.77
2024-03-04T21:08:16.023Z,45.97
2024-03-04T21:11:01.112Z,43.80
2024-03-04T21:13:46.344Z,45.57
2024-03-04T21:16:31.306Z,44.53
2024-03-04T21:19:16.216Z,45.40
2024-03-04T21:22:01.128Z,46.83
2024-03-04T21:24:46.493Z,43.73
2024-03-04T21:27:32.154Z,44.00
2024-03-04T21:30:17.331Z,46.90
2024-03-04T21:33:02.302Z,46.77
2024-03-04T21:35:47.421Z,47.70
2024-03-04T21:38:32.209Z,45.87
2024-03-04T21:41:17.086Z,46.10
2024-03-04T21:44:02.221Z,44.27
2024-03-04T21:46:47.560Z,46.83
2024-03-04T21:49:32.799Z,45.73
2024-03-04T21:52:17.572Z,44.23
2024-03-04T21:55:02.820Z,45.53
2024-03-04T21:57:48.003Z,45.43
2024-03-04T22:00:32.942Z,45.60
2024-03-04T22:03:17.807Z,50.00
2024-03-04T22:06:02.869Z,46.10
2024-03-04T22:08:48.782Z,46.37
2024-03-04T22:11:45.259Z,47.90
2024-03-04T22:14:31.617Z,52.13
2024-03-04T22:17:16.552Z,46.90
2024-03-04T22:20:01.477Z,48.13
2024-03-04T22:22:46.352Z,46.17
2024-03-04T22:25:31.239Z,45.47
2024-03-04T22:28:16.535Z,43.30
2024-03-04T22:31:01.728Z,46.07
2024-03-04T22:33:46.929Z,46.57
2024-03-04T22:36:31.907Z,47.57
2024-03-04T22:39:16.904Z,46.10
2024-03-04T22:42:01.834Z,43.30
2024-03-04T22:44:46.816Z,43.27
2024-03-04T22:47:31.716Z,44.70
2024-03-04T22:50:17.685Z,54.73
2024-03-04T22:53:02.662Z,54.63
2024-03-04T22:55:48.040Z,47.23
2024-03-04T22:58:32.989Z,44.20
2024-03-04T23:01:17.895Z,42.53
2024-03-04T23:04:03.341Z,43.07
2024-03-04T23:06:48.170Z,41.13
2024-03-04T23:09:33.123Z,39.43
2024-03-04T23:12:17.931Z,42.37
2024-03-04T23:15:03.157Z,43.30
2024-03-04T23:17:48.496Z,41.83
2024-03-04T23:20:33.345Z,40.97
2024-03-04T23:23:18.231Z,38.43
2024-03-04T23:26:03.358Z,38.10
2024-03-04T23:28:49.018Z,38.67
2024-03-04T23:31:34.486Z,38.30
2024-03-04T23:34:19.632Z,41.10
2024-03-04T23:37:04.580Z,38.50
2024-03-04T23:39:49.621Z,37.20
2024-03-04T23:42:34.494Z,37.93
2024-03-04T23:45:19.327Z,36.67
2024-03-04T23:48:04.557Z,38.77
2024-03-04T23:50:49.557Z,37.97
2024-03-04T23:53:34.522Z,35.60
2024-03-04T23:56:19.530Z,34.43
2024-03-04T23:59:04.372Z,35.40
